Vigan, Philippines

8:01 PM PHT on July 24, 2016 (GMT +0800)
Masintoc | | Change Station

Elev 20 ft 18.08 °N, 120.49 °E | Updated 11 seconds ago

Mostly Cloudy
Mostly Cloudy
78.8 °F
Feels Like 83 °F
N
0.0
Wind Variable Wind from North
Gusts 0.0 mph

Today
High -- | Low -- °F
--% Chance of Precip.
Yesterday
High -- | Low -- °F
Precip. -- in
Pressure 29.71 in
Visibility 6.2 miles
Clouds Scattered Clouds 1900 ft
Mostly Cloudy 10000 ft
Heat Index 83 °F
Dew Point 78 °F
Humidity 97%
Rainfall 0.24 in
Snow Depth Not available.
5:34 AM 6:35 PM
Waning Gibbous, 77% visible
METAR RPLI 241100Z 09002KT 9999 SCT019 BKN100 25/24 Q1006 NOSIG RMK A2971
Pressure 29.71 in
Visibility 6.2 miles
Clouds Scattered Clouds 1900 ft
Mostly Cloudy 10000 ft
Heat Index 83 °F
Dew Point 78 °F
Humidity 97%
Rainfall 0.24 in
Snow Depth Not available.
5:34 AM 6:35 PM
Waning Gibbous, 77% visible
METAR RPLI 241100Z 09002KT 9999 SCT019 BKN100 25/24 Q1006 NOSIG RMK A2971

10-Day Weather Forecast

No radar image for this location.
×

Almanac

Astronomy

Jul. 24, 2016 Rise Set
Actual Time
Civil Twilight
Nautical Twilight
Astronomical Twilight
Moon
Length of Visible Light
Length of Day
Tomorrow will be .
, % of the Moon is Illuminated

Today's Extremes

Country Highs Country Lows

Community

WunderPhotos

Upload Photos

1,927,050 photos uploaded!

WunderBlog® & News

Nearby

Air Quality

  Air Quality AQ Index Pollutant
Not available.

Snow Depth

Station Depth Elevation

Earthquake Activity

City Distance Mag. Time & Date
Minimum magnitude displayed is 2.5.

Coastal Water Temperatures

Place Temperature

Stations

Nearby Weather Stations

Station Location Temp. Windchill Dew Point Humidity Wind Precip. Elev Updated Type